Accueil
METAR-TAF:

METAR-TAF

Aéroports :

Aéroport international de Bahreïn

Bahreïn, Bahreïn

latitude: 26-16N, longitude: 050-39E, altitude: 2 m

Observation

Le bulletin a été fait il y a 29 minutes, à 06:00 UTC
Vent 20 kt de nord-ouest
Température 35°C
Humidité 47%
Pression 1004 hPa
Visibilité 10 km ou plus
pas de nuages en-dessous de 1500 mètres et pas de cumulonimbus.

METAR: OBBI 050600Z 32020KT CAVOK 35/22 Q1004 NOSIG

Heure: 09:29 (06:29 UTC)

Prévision

Le bulletin a été fait il y a 1 heure et 29 minutes, à 05:00 UTC
Prévision valable du 05 à 06 UTC au 06 à 12 UTC
Vent 20 kt de nord/nord-ouest avec des rafales jusqu'à 30 kt
Visibilité 10 km ou plus
pas de nuages en-dessous de 1500 mètres et pas de cumulonimbus.

TAF: OBBI 050500Z 0506/0612 33020G30KT CAVOK

Observations et prévisions météorologiques de plus de 4000 aéroports (messages METAR et TAF).

Les stations disponibles sont représentées par des disques jaunes et rouges sur la carte.

Passer la souris dessus pour voir le nom de la station.

Cliquer dessus pour voir les observations et prévisions météorologiques.

Pour changer de carte: cliquez sur les boutons verts avec une croix noire pour zoomer, sur le bouton vert avec un tiret pour effectuer un zoom arrière, ou sur les flèches vertes pour les cartes adjacentes.


METAR-TAF: